sensor_id;sensor_type;location;lat;lon;timestamp;temperature;humidity
851;DHT22;412;51.400;7.480;2022-08-26T00:01:14;24.80;92.10
851;DHT22;412;51.400;7.480;2022-08-26T00:03:40;24.80;92.10
851;DHT22;412;51.400;7.480;2022-08-26T00:06:07;24.90;92.80
851;DHT22;412;51.400;7.480;2022-08-26T00:08:33;24.80;92.20
851;DHT22;412;51.400;7.480;2022-08-26T00:10:59;24.80;92.10
851;DHT22;412;51.400;7.480;2022-08-26T00:13:26;24.80;92.20
851;DHT22;412;51.400;7.480;2022-08-26T00:15:52;24.80;92.30
851;DHT22;412;51.400;7.480;2022-08-26T00:18:18;24.80;92.40
851;DHT22;412;51.400;7.480;2022-08-26T00:20:44;24.80;92.30
851;DHT22;412;51.400;7.480;2022-08-26T00:23:10;24.70;92.90
851;DHT22;412;51.400;7.480;2022-08-26T00:25:36;24.70;92.60
851;DHT22;412;51.400;7.480;2022-08-26T00:28:03;24.60;92.40
851;DHT22;412;51.400;7.480;2022-08-26T00:30:30;24.60;93.00
851;DHT22;412;51.400;7.480;2022-08-26T00:32:59;24.50;92.90
851;DHT22;412;51.400;7.480;2022-08-26T00:35:26;24.50;92.90
851;DHT22;412;51.400;7.480;2022-08-26T00:37:53;24.50;93.20
851;DHT22;412;51.400;7.480;2022-08-26T00:40:27;24.50;93.40
851;DHT22;412;51.400;7.480;2022-08-26T00:42:54;24.40;93.60
851;DHT22;412;51.400;7.480;2022-08-26T00:45:20;24.40;93.50
851;DHT22;412;51.400;7.480;2022-08-26T00:47:49;24.40;93.40
851;DHT22;412;51.400;7.480;2022-08-26T00:50:21;24.40;93.60
851;DHT22;412;51.400;7.480;2022-08-26T00:52:47;24.30;93.80
851;DHT22;412;51.400;7.480;2022-08-26T00:55:22;24.30;93.60
851;DHT22;412;51.400;7.480;2022-08-26T00:57:51;24.30;93.70
851;DHT22;412;51.400;7.480;2022-08-26T01:00:23;24.30;93.50
851;DHT22;412;51.400;7.480;2022-08-26T01:02:50;24.30;93.70
851;DHT22;412;51.400;7.480;2022-08-26T01:05:18;24.30;94.00
851;DHT22;412;51.400;7.480;2022-08-26T01:07:44;24.30;94.30
851;DHT22;412;51.400;7.480;2022-08-26T01:10:13;24.30;94.40
851;DHT22;412;51.400;7.480;2022-08-26T01:12:45;24.30;94.40
851;DHT22;412;51.400;7.480;2022-08-26T01:15:21;24.20;94.10
851;DHT22;412;51.400;7.480;2022-08-26T01:17:47;24.20;94.30
851;DHT22;412;51.400;7.480;2022-08-26T01:23:06;24.10;94.50
851;DHT22;412;51.400;7.480;2022-08-26T01:25:33;24.10;94.70
851;DHT22;412;51.400;7.480;2022-08-26T01:28:05;24.10;94.80
851;DHT22;412;51.400;7.480;2022-08-26T01:30:35;24.10;94.90
851;DHT22;412;51.400;7.480;2022-08-26T01:33:04;24.10;94.60
851;DHT22;412;51.400;7.480;2022-08-26T01:35:33;24.00;95.50
851;DHT22;412;51.400;7.480;2022-08-26T01:37:59;24.10;95.00
851;DHT22;412;51.400;7.480;2022-08-26T01:40:30;24.10;95.00
851;DHT22;412;51.400;7.480;2022-08-26T01:42:57;24.00;95.00
851;DHT22;412;51.400;7.480;2022-08-26T01:45:27;24.10;95.20
851;DHT22;412;51.400;7.480;2022-08-26T01:47:56;24.00;95.10
851;DHT22;412;51.400;7.480;2022-08-26T01:50:28;24.00;95.30
851;DHT22;412;51.400;7.480;2022-08-26T01:52:57;24.00;95.10
851;DHT22;412;51.400;7.480;2022-08-26T01:55:24;24.00;95.40
851;DHT22;412;51.400;7.480;2022-08-26T01:57:54;24.10;95.20
851;DHT22;412;51.400;7.480;2022-08-26T02:00:21;24.00;95.20
851;DHT22;412;51.400;7.480;2022-08-26T02:02:51;24.00;95.10
851;DHT22;412;51.400;7.480;2022-08-26T02:05:37;24.00;94.70
851;DHT22;412;51.400;7.480;2022-08-26T02:08:04;24.00;94.70
851;DHT22;412;51.400;7.480;2022-08-26T02:10:30;23.90;94.60
851;DHT22;412;51.400;7.480;2022-08-26T02:12:56;23.90;94.70
851;DHT22;412;51.400;7.480;2022-08-26T02:15:22;23.90;94.90
851;DHT22;412;51.400;7.480;2022-08-26T02:17:47;23.90;94.90
851;DHT22;412;51.400;7.480;2022-08-26T02:20:17;23.80;95.10
851;DHT22;412;51.400;7.480;2022-08-26T02:22:43;23.80;95.60
851;DHT22;412;51.400;7.480;2022-08-26T02:25:23;23.80;95.80
851;DHT22;412;51.400;7.480;2022-08-26T02:27:50;23.80;95.40
851;DHT22;412;51.400;7.480;2022-08-26T02:30:30;23.70;95.40
851;DHT22;412;51.400;7.480;2022-08-26T02:33:00;23.70;95.50
851;DHT22;412;51.400;7.480;2022-08-26T02:35:30;23.70;95.50
851;DHT22;412;51.400;7.480;2022-08-26T02:37:57;23.60;95.50
851;DHT22;412;51.400;7.480;2022-08-26T02:40:26;23.60;95.60
851;DHT22;412;51.400;7.480;2022-08-26T02:42:52;23.70;95.90
851;DHT22;412;51.400;7.480;2022-08-26T02:45:17;23.70;95.70
851;DHT22;412;51.400;7.480;2022-08-26T02:47:44;23.70;95.20
851;DHT22;412;51.400;7.480;2022-08-26T02:50:09;23.70;95.20
851;DHT22;412;51.400;7.480;2022-08-26T02:52:35;23.80;95.00
851;DHT22;412;51.400;7.480;2022-08-26T02:55:03;23.80;94.90
851;DHT22;412;51.400;7.480;2022-08-26T02:57:29;23.80;95.00
851;DHT22;412;51.400;7.480;2022-08-26T02:59:55;23.80;95.30
851;DHT22;412;51.400;7.480;2022-08-26T03:02:21;23.80;95.50
851;DHT22;412;51.400;7.480;2022-08-26T03:04:47;23.80;95.70
851;DHT22;412;51.400;7.480;2022-08-26T03:07:13;23.70;96.10
851;DHT22;412;51.400;7.480;2022-08-26T03:09:39;23.70;95.60
851;DHT22;412;51.400;7.480;2022-08-26T03:12:05;23.60;95.60
851;DHT22;412;51.400;7.480;2022-08-26T03:14:31;23.50;95.90
851;DHT22;412;51.400;7.480;2022-08-26T03:16:56;23.50;96.00
851;DHT22;412;51.400;7.480;2022-08-26T03:19:23;23.50;96.40
851;DHT22;412;51.400;7.480;2022-08-26T03:21:50;23.50;96.40
851;DHT22;412;51.400;7.480;2022-08-26T03:24:16;23.50;96.30
851;DHT22;412;51.400;7.480;2022-08-26T03:26:43;23.40;96.20
851;DHT22;412;51.400;7.480;2022-08-26T03:29:09;23.40;96.50
851;DHT22;412;51.400;7.480;2022-08-26T03:31:53;23.40;96.50
851;DHT22;412;51.400;7.480;2022-08-26T03:34:20;23.30;96.40
851;DHT22;412;51.400;7.480;2022-08-26T03:36:45;23.30;96.50
851;DHT22;412;51.400;7.480;2022-08-26T03:39:12;23.30;96.50
851;DHT22;412;51.400;7.480;2022-08-26T03:41:38;23.40;96.40
851;DHT22;412;51.400;7.480;2022-08-26T03:44:06;23.40;96.30
851;DHT22;412;51.400;7.480;2022-08-26T03:46:33;23.40;96.60
851;DHT22;412;51.400;7.480;2022-08-26T03:49:00;23.40;96.40
851;DHT22;412;51.400;7.480;2022-08-26T03:51:27;23.50;96.70
851;DHT22;412;51.400;7.480;2022-08-26T03:53:53;23.50;96.60
851;DHT22;412;51.400;7.480;2022-08-26T03:56:19;23.50;96.60
851;DHT22;412;51.400;7.480;2022-08-26T03:58:46;23.50;96.60
851;DHT22;412;51.400;7.480;2022-08-26T04:01:12;23.50;96.80
851;DHT22;412;51.400;7.480;2022-08-26T04:03:39;23.60;97.00
851;DHT22;412;51.400;7.480;2022-08-26T04:06:40;23.60;96.80
851;DHT22;412;51.400;7.480;2022-08-26T04:09:28;23.60;97.40
851;DHT22;412;51.400;7.480;2022-08-26T04:11:54;23.70;97.80
851;DHT22;412;51.400;7.480;2022-08-26T04:14:22;23.70;97.60
851;DHT22;412;51.400;7.480;2022-08-26T04:16:48;23.70;97.60
851;DHT22;412;51.400;7.480;2022-08-26T04:19:15;23.70;97.50
851;DHT22;412;51.400;7.480;2022-08-26T04:21:42;23.70;97.70
851;DHT22;412;51.400;7.480;2022-08-26T04:24:10;23.70;97.60
851;DHT22;412;51.400;7.480;2022-08-26T04:26:37;23.70;97.80
851;DHT22;412;51.400;7.480;2022-08-26T04:29:07;23.70;97.90
851;DHT22;412;51.400;7.480;2022-08-26T04:31:35;23.70;98.20
851;DHT22;412;51.400;7.480;2022-08-26T04:34:01;23.70;98.30
851;DHT22;412;51.400;7.480;2022-08-26T04:36:27;23.70;98.50
851;DHT22;412;51.400;7.480;2022-08-26T04:38:53;23.70;98.40
851;DHT22;412;51.400;7.480;2022-08-26T04:41:19;23.60;98.50
851;DHT22;412;51.400;7.480;2022-08-26T04:43:46;23.60;98.50
851;DHT22;412;51.400;7.480;2022-08-26T04:46:12;23.60;98.40
851;DHT22;412;51.400;7.480;2022-08-26T04:48:40;23.60;98.90
851;DHT22;412;51.400;7.480;2022-08-26T04:51:07;23.60;99.30
851;DHT22;412;51.400;7.480;2022-08-26T04:53:32;23.60;99.60
851;DHT22;412;51.400;7.480;2022-08-26T04:55:58;23.50;99.90
851;DHT22;412;51.400;7.480;2022-08-26T04:58:24;23.50;99.90
851;DHT22;412;51.400;7.480;2022-08-26T05:00:52;23.50;99.90
851;DHT22;412;51.400;7.480;2022-08-26T05:03:19;23.40;99.90
851;DHT22;412;51.400;7.480;2022-08-26T05:05:46;23.40;99.90
851;DHT22;412;51.400;7.480;2022-08-26T05:08:15;23.30;99.90
851;DHT22;412;51.400;7.480;2022-08-26T05:10:43;23.30;99.90
851;DHT22;412;51.400;7.480;2022-08-26T05:13:11;23.30;99.90
851;DHT22;412;51.400;7.480;2022-08-26T05:15:37;23.20;99.90
851;DHT22;412;51.400;7.480;2022-08-26T05:18:04;23.30;99.90
851;DHT22;412;51.400;7.480;2022-08-26T05:20:31;23.30;99.90
851;DHT22;412;51.400;7.480;2022-08-26T05:23:00;23.30;99.90
851;DHT22;412;51.400;7.480;2022-08-26T05:25:27;23.30;99.90
851;DHT22;412;51.400;7.480;2022-08-26T05:27:53;23.30;99.90
851;DHT22;412;51.400;7.480;2022-08-26T05:30:19;23.30;99.90
851;DHT22;412;51.400;7.480;2022-08-26T05:32:47;23.40;99.90
851;DHT22;412;51.400;7.480;2022-08-26T05:35:14;23.40;99.90
851;DHT22;412;51.400;7.480;2022-08-26T05:37:39;23.40;99.90
851;DHT22;412;51.400;7.480;2022-08-26T05:40:06;23.50;99.90
851;DHT22;412;51.400;7.480;2022-08-26T05:42:32;23.50;99.90
851;DHT22;412;51.400;7.480;2022-08-26T05:44:58;23.50;99.90
851;DHT22;412;51.400;7.480;2022-08-26T05:47:24;23.50;99.90
851;DHT22;412;51.400;7.480;2022-08-26T05:49:51;23.60;99.90
851;DHT22;412;51.400;7.480;2022-08-26T05:52:16;23.60;99.90
851;DHT22;412;51.400;7.480;2022-08-26T05:54:43;23.60;99.90
851;DHT22;412;51.400;7.480;2022-08-26T05:57:09;23.60;99.90
851;DHT22;412;51.400;7.480;2022-08-26T05:59:37;23.60;99.90
851;DHT22;412;51.400;7.480;2022-08-26T06:02:04;23.60;99.90
851;DHT22;412;51.400;7.480;2022-08-26T06:04:30;23.60;99.90
851;DHT22;412;51.400;7.480;2022-08-26T06:06:56;23.70;99.90
851;DHT22;412;51.400;7.480;2022-08-26T06:09:22;23.70;99.90
851;DHT22;412;51.400;7.480;2022-08-26T06:11:48;23.70;99.90
851;DHT22;412;51.400;7.480;2022-08-26T06:14:14;23.80;99.90
851;DHT22;412;51.400;7.480;2022-08-26T06:16:41;23.90;99.90
851;DHT22;412;51.400;7.480;2022-08-26T06:19:10;24.10;99.90
851;DHT22;412;51.400;7.480;2022-08-26T06:21:37;24.20;99.90
851;DHT22;412;51.400;7.480;2022-08-26T06:24:07;24.30;99.90
851;DHT22;412;51.400;7.480;2022-08-26T06:26:54;24.50;99.90
851;DHT22;412;51.400;7.480;2022-08-26T06:29:22;24.60;99.90
851;DHT22;412;51.400;7.480;2022-08-26T06:31:48;24.70;99.90
851;DHT22;412;51.400;7.480;2022-08-26T06:34:14;24.70;99.90
851;DHT22;412;51.400;7.480;2022-08-26T06:36:41;24.80;99.90
851;DHT22;412;51.400;7.480;2022-08-26T06:39:10;24.80;99.90
851;DHT22;412;51.400;7.480;2022-08-26T06:41:37;24.80;99.90
851;DHT22;412;51.400;7.480;2022-08-26T06:44:05;24.90;99.90
851;DHT22;412;51.400;7.480;2022-08-26T06:46:31;24.90;99.90
851;DHT22;412;51.400;7.480;2022-08-26T06:48:58;24.90;99.90
851;DHT22;412;51.400;7.480;2022-08-26T06:51:27;24.90;99.90
851;DHT22;412;51.400;7.480;2022-08-26T06:53:54;25.00;99.90
851;DHT22;412;51.400;7.480;2022-08-26T06:56:23;25.00;99.90
851;DHT22;412;51.400;7.480;2022-08-26T06:58:50;25.10;99.90
851;DHT22;412;51.400;7.480;2022-08-26T07:01:21;25.00;99.90
851;DHT22;412;51.400;7.480;2022-08-26T07:03:49;24.90;99.90
851;DHT22;412;51.400;7.480;2022-08-26T07:06:15;24.90;99.90
851;DHT22;412;51.400;7.480;2022-08-26T07:08:44;25.00;99.90
851;DHT22;412;51.400;7.480;2022-08-26T07:11:10;25.00;99.90
851;DHT22;412;51.400;7.480;2022-08-26T07:13:37;25.00;99.90
851;DHT22;412;51.400;7.480;2022-08-26T07:16:07;25.10;99.90
851;DHT22;412;51.400;7.480;2022-08-26T07:18:35;25.10;99.90
851;DHT22;412;51.400;7.480;2022-08-26T07:21:02;25.10;99.90
851;DHT22;412;51.400;7.480;2022-08-26T07:23:30;25.10;99.90
851;DHT22;412;51.400;7.480;2022-08-26T07:25:56;25.10;99.90
851;DHT22;412;51.400;7.480;2022-08-26T07:28:22;25.10;99.90
851;DHT22;412;51.400;7.480;2022-08-26T07:30:47;25.10;99.90
851;DHT22;412;51.400;7.480;2022-08-26T07:33:13;25.10;99.90
851;DHT22;412;51.400;7.480;2022-08-26T07:35:39;25.10;99.90
851;DHT22;412;51.400;7.480;2022-08-26T07:38:06;25.10;99.90
851;DHT22;412;51.400;7.480;2022-08-26T07:40:32;25.10;99.90
851;DHT22;412;51.400;7.480;2022-08-26T07:42:58;25.10;99.90
851;DHT22;412;51.400;7.480;2022-08-26T07:45:24;25.00;99.90
851;DHT22;412;51.400;7.480;2022-08-26T07:47:50;25.00;99.90
851;DHT22;412;51.400;7.480;2022-08-26T07:50:16;25.10;99.90
851;DHT22;412;51.400;7.480;2022-08-26T07:52:41;25.10;99.90
851;DHT22;412;51.400;7.480;2022-08-26T07:55:08;25.10;99.90
851;DHT22;412;51.400;7.480;2022-08-26T07:57:34;25.20;99.90
851;DHT22;412;51.400;7.480;2022-08-26T08:00:00;25.20;99.90
851;DHT22;412;51.400;7.480;2022-08-26T08:02:27;25.20;99.90
851;DHT22;412;51.400;7.480;2022-08-26T08:04:54;25.20;99.80
851;DHT22;412;51.400;7.480;2022-08-26T08:07:21;25.30;99.70
851;DHT22;412;51.400;7.480;2022-08-26T08:09:47;25.30;99.60
851;DHT22;412;51.400;7.480;2022-08-26T08:12:16;25.30;99.60
851;DHT22;412;51.400;7.480;2022-08-26T08:14:42;25.30;99.60
851;DHT22;412;51.400;7.480;2022-08-26T08:17:10;25.30;99.90
851;DHT22;412;51.400;7.480;2022-08-26T08:19:36;25.30;99.70
851;DHT22;412;51.400;7.480;2022-08-26T08:22:02;25.30;99.60
851;DHT22;412;51.400;7.480;2022-08-26T08:24:30;25.30;99.80
851;DHT22;412;51.400;7.480;2022-08-26T08:27:00;25.30;99.40
851;DHT22;412;51.400;7.480;2022-08-26T08:29:26;25.20;99.40
851;DHT22;412;51.400;7.480;2022-08-26T08:31:57;25.30;99.60
851;DHT22;412;51.400;7.480;2022-08-26T08:34:24;25.30;99.30
851;DHT22;412;51.400;7.480;2022-08-26T08:36:50;25.30;99.40
851;DHT22;412;51.400;7.480;2022-08-26T08:39:16;25.50;99.20
851;DHT22;412;51.400;7.480;2022-08-26T08:44:31;25.70;98.80
851;DHT22;412;51.400;7.480;2022-08-26T08:47:01;25.70;98.80
851;DHT22;412;51.400;7.480;2022-08-26T08:49:29;25.80;99.10
851;DHT22;412;51.400;7.480;2022-08-26T08:54:44;25.80;98.90
851;DHT22;412;51.400;7.480;2022-08-26T08:57:14;25.80;98.70
851;DHT22;412;51.400;7.480;2022-08-26T08:59:50;25.90;98.70
851;DHT22;412;51.400;7.480;2022-08-26T09:02:40;25.90;98.60
851;DHT22;412;51.400;7.480;2022-08-26T09:05:20;26.00;98.50
851;DHT22;412;51.400;7.480;2022-08-26T09:07:54;26.00;98.40
851;DHT22;412;51.400;7.480;2022-08-26T09:10:37;26.00;98.40
851;DHT22;412;51.400;7.480;2022-08-26T09:13:07;26.00;98.30
851;DHT22;412;51.400;7.480;2022-08-26T09:15:47;26.10;98.10
851;DHT22;412;51.400;7.480;2022-08-26T09:21:04;26.10;98.10
851;DHT22;412;51.400;7.480;2022-08-26T09:23:39;26.10;98.10
851;DHT22;412;51.400;7.480;2022-08-26T09:29:07;26.10;98.00
851;DHT22;412;51.400;7.480;2022-08-26T09:31:38;26.10;97.90
851;DHT22;412;51.400;7.480;2022-08-26T09:34:23;26.10;97.80
851;DHT22;412;51.400;7.480;2022-08-26T09:36:51;26.20;98.00
851;DHT22;412;51.400;7.480;2022-08-26T09:42:21;26.20;97.80
851;DHT22;412;51.400;7.480;2022-08-26T09:45:05;26.30;98.00
851;DHT22;412;51.400;7.480;2022-08-26T09:50:24;26.30;97.70
851;DHT22;412;51.400;7.480;2022-08-26T09:53:16;26.30;97.80
851;DHT22;412;51.400;7.480;2022-08-26T09:55:44;26.30;97.80
851;DHT22;412;51.400;7.480;2022-08-26T09:58:32;26.30;97.50
851;DHT22;412;51.400;7.480;2022-08-26T10:01:00;26.20;97.30
851;DHT22;412;51.400;7.480;2022-08-26T10:03:30;26.10;97.50
851;DHT22;412;51.400;7.480;2022-08-26T10:06:20;26.10;97.50
851;DHT22;412;51.400;7.480;2022-08-26T10:09:05;26.00;97.60
851;DHT22;412;51.400;7.480;2022-08-26T10:14:29;25.90;97.60
851;DHT22;412;51.400;7.480;2022-08-26T10:17:10;25.90;97.50
851;DHT22;412;51.400;7.480;2022-08-26T10:19:45;26.00;97.40
851;DHT22;412;51.400;7.480;2022-08-26T10:25:21;26.00;97.50
851;DHT22;412;51.400;7.480;2022-08-26T10:30:29;26.00;97.60
851;DHT22;412;51.400;7.480;2022-08-26T10:33:01;26.00;98.40
851;DHT22;412;51.400;7.480;2022-08-26T10:35:28;26.00;98.40
851;DHT22;412;51.400;7.480;2022-08-26T10:37:59;26.10;98.00
851;DHT22;412;51.400;7.480;2022-08-26T10:40:44;26.20;98.40
851;DHT22;412;51.400;7.480;2022-08-26T10:43:22;26.20;97.90
851;DHT22;412;51.400;7.480;2022-08-26T10:45:57;26.30;97.80
851;DHT22;412;51.400;7.480;2022-08-26T10:50:55;26.40;97.60
851;DHT22;412;51.400;7.480;2022-08-26T11:01:21;26.50;97.80
851;DHT22;412;51.400;7.480;2022-08-26T11:04:34;26.50;97.40
851;DHT22;412;51.400;7.480;2022-08-26T11:09:53;26.60;97.70
851;DHT22;412;51.400;7.480;2022-08-26T11:22:50;26.30;97.10
851;DHT22;412;51.400;7.480;2022-08-26T11:25:21;26.20;97.20
851;DHT22;412;51.400;7.480;2022-08-26T11:40:25;25.90;98.10
851;DHT22;412;51.400;7.480;2022-08-26T11:42:57;26.00;97.80
851;DHT22;412;51.400;7.480;2022-08-26T11:45:40;26.10;97.90
851;DHT22;412;51.400;7.480;2022-08-26T11:48:29;26.10;97.50
851;DHT22;412;51.400;7.480;2022-08-26T11:53:26;26.20;97.80
851;DHT22;412;51.400;7.480;2022-08-26T11:55:54;26.20;97.70
851;DHT22;412;51.400;7.480;2022-08-26T11:58:22;26.20;97.60
851;DHT22;412;51.400;7.480;2022-08-26T12:01:04;26.30;97.40
851;DHT22;412;51.400;7.480;2022-08-26T12:09:23;26.30;97.90
851;DHT22;412;51.400;7.480;2022-08-26T12:11:49;26.20;98.10
851;DHT22;412;51.400;7.480;2022-08-26T12:14:24;26.00;99.60
851;DHT22;412;51.400;7.480;2022-08-26T12:16:50;26.00;99.50
851;DHT22;412;51.400;7.480;2022-08-26T12:19:25;26.00;99.20
851;DHT22;412;51.400;7.480;2022-08-26T12:24:47;26.10;99.40
851;DHT22;412;51.400;7.480;2022-08-26T12:27:26;26.10;99.90
851;DHT22;412;51.400;7.480;2022-08-26T12:30:19;26.20;99.70
851;DHT22;412;51.400;7.480;2022-08-26T12:32:49;26.20;99.90
851;DHT22;412;51.400;7.480;2022-08-26T12:35:17;26.20;99.90
851;DHT22;412;51.400;7.480;2022-08-26T12:37:46;26.20;99.90
851;DHT22;412;51.400;7.480;2022-08-26T12:42:53;26.20;99.90
851;DHT22;412;51.400;7.480;2022-08-26T12:45:40;26.20;99.90
851;DHT22;412;51.400;7.480;2022-08-26T12:48:18;26.20;99.90
851;DHT22;412;51.400;7.480;2022-08-26T12:50:48;26.20;99.90
851;DHT22;412;51.400;7.480;2022-08-26T12:53:20;26.20;99.40
851;DHT22;412;51.400;7.480;2022-08-26T12:55:55;26.20;99.70
851;DHT22;412;51.400;7.480;2022-08-26T13:03:40;26.30;98.20
851;DHT22;412;51.400;7.480;2022-08-26T13:08:43;26.30;99.90
851;DHT22;412;51.400;7.480;2022-08-26T13:11:14;26.00;98.90
851;DHT22;412;51.400;7.480;2022-08-26T13:13:43;25.90;99.20
851;DHT22;412;51.400;7.480;2022-08-26T13:16:10;25.90;98.80
851;DHT22;412;51.400;7.480;2022-08-26T13:18:36;25.80;98.90
851;DHT22;412;51.400;7.480;2022-08-26T13:21:20;25.70;98.80
851;DHT22;412;51.400;7.480;2022-08-26T13:23:47;25.60;98.80
851;DHT22;412;51.400;7.480;2022-08-26T13:26:13;25.60;98.70
851;DHT22;412;51.400;7.480;2022-08-26T13:28:40;25.50;98.70
851;DHT22;412;51.400;7.480;2022-08-26T13:31:07;25.50;98.70
851;DHT22;412;51.400;7.480;2022-08-26T13:33:33;25.60;98.60
851;DHT22;412;51.400;7.480;2022-08-26T13:35:59;25.50;99.70
851;DHT22;412;51.400;7.480;2022-08-26T13:38:25;25.60;99.20
851;DHT22;412;51.400;7.480;2022-08-26T13:40:51;25.60;99.30
851;DHT22;412;51.400;7.480;2022-08-26T13:43:17;25.70;99.10
851;DHT22;412;51.400;7.480;2022-08-26T13:45:42;25.70;98.80
851;DHT22;412;51.400;7.480;2022-08-26T13:48:09;25.80;98.90
851;DHT22;412;51.400;7.480;2022-08-26T13:50:35;25.80;98.30
851;DHT22;412;51.400;7.480;2022-08-26T13:53:01;25.90;98.60
851;DHT22;412;51.400;7.480;2022-08-26T13:55:27;25.90;98.60
851;DHT22;412;51.400;7.480;2022-08-26T13:57:54;25.90;98.60
851;DHT22;412;51.400;7.480;2022-08-26T14:00:20;25.90;98.60
851;DHT22;412;51.400;7.480;2022-08-26T14:02:47;25.90;98.40
851;DHT22;412;51.400;7.480;2022-08-26T14:05:13;25.90;98.50
851;DHT22;412;51.400;7.480;2022-08-26T14:07:39;25.90;98.50
851;DHT22;412;51.400;7.480;2022-08-26T14:10:05;25.80;99.20
851;DHT22;412;51.400;7.480;2022-08-26T14:12:31;25.80;99.00
851;DHT22;412;51.400;7.480;2022-08-26T14:14:57;25.80;98.80
851;DHT22;412;51.400;7.480;2022-08-26T14:17:23;25.90;98.90
851;DHT22;412;51.400;7.480;2022-08-26T14:19:51;25.90;98.80
851;DHT22;412;51.400;7.480;2022-08-26T14:22:19;25.90;98.40
851;DHT22;412;51.400;7.480;2022-08-26T14:24:46;25.90;98.50
851;DHT22;412;51.400;7.480;2022-08-26T14:27:12;25.90;98.60
851;DHT22;412;51.400;7.480;2022-08-26T14:29:38;25.90;98.50
851;DHT22;412;51.400;7.480;2022-08-26T14:32:11;25.90;98.50
851;DHT22;412;51.400;7.480;2022-08-26T14:34:41;25.90;98.60
851;DHT22;412;51.400;7.480;2022-08-26T14:37:07;25.90;98.60
851;DHT22;412;51.400;7.480;2022-08-26T14:39:33;25.90;98.60
851;DHT22;412;51.400;7.480;2022-08-26T14:41:59;25.80;99.30
851;DHT22;412;51.400;7.480;2022-08-26T14:44:28;25.80;99.50
851;DHT22;412;51.400;7.480;2022-08-26T14:46:56;25.70;99.30
851;DHT22;412;51.400;7.480;2022-08-26T14:49:23;25.70;99.60
851;DHT22;412;51.400;7.480;2022-08-26T14:51:49;25.60;99.50
851;DHT22;412;51.400;7.480;2022-08-26T14:54:17;25.60;99.60
851;DHT22;412;51.400;7.480;2022-08-26T14:56:52;25.60;99.70
851;DHT22;412;51.400;7.480;2022-08-26T14:59:26;25.60;99.30
851;DHT22;412;51.400;7.480;2022-08-26T15:01:53;25.60;99.90
851;DHT22;412;51.400;7.480;2022-08-26T15:04:20;25.50;99.90
851;DHT22;412;51.400;7.480;2022-08-26T15:06:46;25.50;99.80
851;DHT22;412;51.400;7.480;2022-08-26T15:09:12;25.50;99.60
851;DHT22;412;51.400;7.480;2022-08-26T15:11:38;25.40;99.70
851;DHT22;412;51.400;7.480;2022-08-26T15:14:04;25.40;99.60
851;DHT22;412;51.400;7.480;2022-08-26T15:16:31;25.40;99.50
851;DHT22;412;51.400;7.480;2022-08-26T15:18:58;25.40;99.30
851;DHT22;412;51.400;7.480;2022-08-26T15:21:23;25.40;99.40
851;DHT22;412;51.400;7.480;2022-08-26T15:23:50;25.40;99.20
851;DHT22;412;51.400;7.480;2022-08-26T15:26:17;25.50;99.50
851;DHT22;412;51.400;7.480;2022-08-26T15:28:43;25.40;99.00
851;DHT22;412;51.400;7.480;2022-08-26T15:31:09;25.40;98.90
851;DHT22;412;51.400;7.480;2022-08-26T15:33:36;25.40;98.80
851;DHT22;412;51.400;7.480;2022-08-26T15:36:03;25.50;98.70
851;DHT22;412;51.400;7.480;2022-08-26T15:38:31;25.40;98.70
851;DHT22;412;51.400;7.480;2022-08-26T15:40:57;25.30;98.60
851;DHT22;412;51.400;7.480;2022-08-26T15:43:25;25.30;98.50
851;DHT22;412;51.400;7.480;2022-08-26T15:45:52;25.20;98.60
851;DHT22;412;51.400;7.480;2022-08-26T15:48:19;25.10;98.70
851;DHT22;412;51.400;7.480;2022-08-26T15:50:54;25.10;98.70
851;DHT22;412;51.400;7.480;2022-08-26T15:53:21;25.10;98.70
851;DHT22;412;51.400;7.480;2022-08-26T15:55:48;25.10;98.70
851;DHT22;412;51.400;7.480;2022-08-26T15:58:15;25.00;98.70
851;DHT22;412;51.400;7.480;2022-08-26T16:00:41;25.00;98.80
851;DHT22;412;51.400;7.480;2022-08-26T16:03:07;24.90;99.00
851;DHT22;412;51.400;7.480;2022-08-26T16:05:38;24.90;98.90
851;DHT22;412;51.400;7.480;2022-08-26T16:08:05;24.90;99.00
851;DHT22;412;51.400;7.480;2022-08-26T16:10:33;24.90;98.90
851;DHT22;412;51.400;7.480;2022-08-26T16:12:59;24.90;99.00
851;DHT22;412;51.400;7.480;2022-08-26T16:15:25;24.90;98.90
851;DHT22;412;51.400;7.480;2022-08-26T16:17:51;24.90;99.00
851;DHT22;412;51.400;7.480;2022-08-26T16:20:17;24.90;99.00
851;DHT22;412;51.400;7.480;2022-08-26T16:22:42;24.90;99.10
851;DHT22;412;51.400;7.480;2022-08-26T16:25:09;24.90;99.20
851;DHT22;412;51.400;7.480;2022-08-26T16:27:35;24.90;99.20
851;DHT22;412;51.400;7.480;2022-08-26T16:30:04;24.90;99.10
851;DHT22;412;51.400;7.480;2022-08-26T16:32:30;24.90;99.20
851;DHT22;412;51.400;7.480;2022-08-26T16:34:56;24.90;99.20
851;DHT22;412;51.400;7.480;2022-08-26T16:37:21;24.80;99.30
851;DHT22;412;51.400;7.480;2022-08-26T16:39:47;24.80;99.40
851;DHT22;412;51.400;7.480;2022-08-26T16:42:13;24.80;99.40
851;DHT22;412;51.400;7.480;2022-08-26T16:44:39;24.70;99.70
851;DHT22;412;51.400;7.480;2022-08-26T16:47:14;24.70;99.80
851;DHT22;412;51.400;7.480;2022-08-26T16:49:41;24.60;99.60
851;DHT22;412;51.400;7.480;2022-08-26T16:52:08;24.70;99.60
851;DHT22;412;51.400;7.480;2022-08-26T16:54:35;24.70;99.60
851;DHT22;412;51.400;7.480;2022-08-26T16:57:01;24.70;99.50
851;DHT22;412;51.400;7.480;2022-08-26T16:59:27;24.80;99.30
851;DHT22;412;51.400;7.480;2022-08-26T17:01:53;24.90;99.50
851;DHT22;412;51.400;7.480;2022-08-26T17:04:19;24.90;99.70
851;DHT22;412;51.400;7.480;2022-08-26T17:06:46;24.90;99.70
851;DHT22;412;51.400;7.480;2022-08-26T17:09:12;24.90;99.70
851;DHT22;412;51.400;7.480;2022-08-26T17:11:38;24.90;99.70
851;DHT22;412;51.400;7.480;2022-08-26T17:14:04;24.90;99.90
851;DHT22;412;51.400;7.480;2022-08-26T17:16:30;24.90;99.90
851;DHT22;412;51.400;7.480;2022-08-26T17:18:57;24.90;99.90
851;DHT22;412;51.400;7.480;2022-08-26T17:21:24;25.00;99.90
851;DHT22;412;51.400;7.480;2022-08-26T17:23:50;25.10;99.90
851;DHT22;412;51.400;7.480;2022-08-26T17:26:16;25.00;99.90
851;DHT22;412;51.400;7.480;2022-08-26T17:28:42;25.00;99.90
851;DHT22;412;51.400;7.480;2022-08-26T17:31:09;25.00;99.90
851;DHT22;412;51.400;7.480;2022-08-26T17:33:37;25.00;99.90
851;DHT22;412;51.400;7.480;2022-08-26T17:36:03;25.00;99.90
851;DHT22;412;51.400;7.480;2022-08-26T17:38:29;25.00;99.90
851;DHT22;412;51.400;7.480;2022-08-26T17:40:56;25.00;99.90
851;DHT22;412;51.400;7.480;2022-08-26T17:43:23;25.00;99.90
851;DHT22;412;51.400;7.480;2022-08-26T17:45:58;25.00;99.90
851;DHT22;412;51.400;7.480;2022-08-26T17:48:24;25.00;99.90
851;DHT22;412;51.400;7.480;2022-08-26T17:50:50;25.00;99.90
851;DHT22;412;51.400;7.480;2022-08-26T17:53:16;25.10;99.90
851;DHT22;412;51.400;7.480;2022-08-26T17:55:42;25.10;99.90
851;DHT22;412;51.400;7.480;2022-08-26T17:58:08;25.10;99.90
851;DHT22;412;51.400;7.480;2022-08-26T18:00:34;25.20;99.90
851;DHT22;412;51.400;7.480;2022-08-26T18:03:00;25.20;99.90
851;DHT22;412;51.400;7.480;2022-08-26T18:05:27;25.20;99.90
851;DHT22;412;51.400;7.480;2022-08-26T18:07:54;25.20;99.90
851;DHT22;412;51.400;7.480;2022-08-26T18:10:23;25.20;99.90